createdAt,value
2023-04-16T00:00:23.312Z,56.5583
2023-04-16T00:01:24.722Z,56.5988
2023-04-16T00:02:27.821Z,56.6131
2023-04-16T00:03:27.774Z,56.5956
2023-04-16T00:04:29.150Z,56.6236
2023-04-16T00:05:30.438Z,56.6563
2023-04-16T00:06:32.678Z,56.6338
2023-04-16T00:07:33.377Z,56.6296
2023-04-16T00:08:34.883Z,56.6642
2023-04-16T00:09:36.217Z,56.5700
2023-04-16T00:10:37.738Z,56.6402
2023-04-16T00:11:39.103Z,56.8424
2023-04-16T00:12:40.734Z,56.8028
2023-04-16T00:13:42.181Z,56.7830
2023-04-16T00:14:43.578Z,56.7698
2023-04-16T00:15:44.858Z,56.7801
2023-04-16T00:16:47.348Z,56.7349
2023-04-16T00:17:47.933Z,56.7106
2023-04-16T00:18:49.365Z,56.7958
2023-04-16T00:19:50.642Z,56.7508
2023-04-16T00:20:52.665Z,56.7417
2023-04-16T00:21:53.530Z,56.5909
2023-04-16T00:22:55.219Z,56.5762
2023-04-16T00:23:56.453Z,56.6405
2023-04-16T00:24:58.705Z,56.6389
2023-04-16T00:25:59.203Z,56.6016
2023-04-16T00:27:00.731Z,56.4906
2023-04-16T00:28:02.177Z,56.5653
2023-04-16T00:29:03.656Z,56.7340
2023-04-16T00:30:04.980Z,56.8135
2023-04-16T00:31:06.537Z,56.7376
2023-04-16T00:32:07.917Z,56.8347
2023-04-16T00:33:09.392Z,56.7426
2023-04-16T00:34:11.149Z,56.7359
2023-04-16T00:35:12.354Z,56.6818
2023-04-16T00:36:16.574Z,56.8081
2023-04-16T00:37:16.088Z,56.8260
2023-04-16T00:38:16.601Z,56.7042
2023-04-16T00:39:18.052Z,56.7414
2023-04-16T00:40:19.432Z,56.8274
2023-04-16T00:41:20.876Z,56.8563
2023-04-16T00:42:22.321Z,56.9077
2023-04-16T00:43:23.782Z,57.0149
2023-04-16T00:44:25.332Z,57.0674
2023-04-16T00:45:26.691Z,56.9182
2023-04-16T00:46:28.209Z,56.9048
2023-04-16T00:47:29.551Z,56.9821
2023-04-16T00:48:31.059Z,56.9260
2023-04-16T00:49:32.497Z,56.7988
2023-04-16T00:50:33.936Z,56.8485
2023-04-16T00:51:35.319Z,56.7616
2023-04-16T00:52:36.797Z,56.8605
2023-04-16T00:53:38.266Z,56.8302
2023-04-16T00:54:39.735Z,56.7594
2023-04-16T00:55:41.129Z,56.6044
2023-04-16T00:56:42.580Z,56.6709
2023-04-16T00:57:44.015Z,56.5737
2023-04-16T00:58:45.518Z,56.6757
2023-04-16T00:59:46.947Z,56.8342
2023-04-16T01:00:48.316Z,56.8039
2023-04-16T01:01:49.781Z,56.9736
2023-04-16T01:02:51.364Z,57.0535
2023-04-16T01:03:52.895Z,57.0117
2023-04-16T01:04:54.136Z,57.1267
2023-04-16T01:05:55.535Z,57.1299
2023-04-16T01:06:57.053Z,57.1577
2023-04-16T01:07:58.518Z,57.1959
2023-04-16T01:09:00.042Z,57.1366
2023-04-16T01:10:01.509Z,56.9011
2023-04-16T01:11:02.876Z,56.9283
2023-04-16T01:12:04.300Z,56.8475
2023-04-16T01:13:05.722Z,57.0999
2023-04-16T01:14:09.204Z,56.9323
2023-04-16T01:15:08.670Z,56.8960
2023-04-16T01:16:10.100Z,56.8863
2023-04-16T01:17:11.516Z,56.8966
2023-04-16T01:18:12.952Z,56.9936
2023-04-16T01:19:14.481Z,56.7626
2023-04-16T01:20:17.751Z,56.7051
2023-04-16T01:21:17.272Z,56.6865
2023-04-16T01:22:18.697Z,56.9117
2023-04-16T01:23:20.184Z,56.9254
2023-04-16T01:24:21.713Z,56.8842
2023-04-16T01:25:23.153Z,56.7934
2023-04-16T01:26:25.139Z,57.0189
2023-04-16T01:27:25.957Z,57.1354
2023-04-16T01:28:28.137Z,57.1356
2023-04-16T01:29:28.879Z,57.1463
2023-04-16T01:30:30.339Z,57.1352
2023-04-16T01:31:31.747Z,57.2208
2023-04-16T01:32:33.227Z,57.1830
2023-04-16T01:33:34.632Z,57.1108
2023-04-16T01:34:36.742Z,57.1783
2023-04-16T01:35:37.608Z,57.0496
2023-04-16T01:36:38.948Z,57.0203
2023-04-16T01:37:40.397Z,56.9600
2023-04-16T01:38:41.795Z,57.0028
2023-04-16T01:39:43.286Z,57.1343
2023-04-16T01:40:44.706Z,57.0869
2023-04-16T01:41:46.225Z,57.1331
2023-04-16T01:42:47.560Z,57.1286
2023-04-16T01:43:49.061Z,57.1699
2023-04-16T01:44:50.480Z,57.0976
2023-04-16T01:45:51.943Z,57.2241
2023-04-16T01:46:53.379Z,57.1385
2023-04-16T01:47:54.845Z,57.1827
2023-04-16T01:48:56.237Z,57.2334
2023-04-16T01:49:57.752Z,57.2919
2023-04-16T01:50:59.147Z,57.2280
2023-04-16T01:52:00.619Z,57.0624
2023-04-16T01:53:01.992Z,56.9464
2023-04-16T01:54:03.435Z,56.9033
2023-04-16T01:55:04.962Z,56.9407
2023-04-16T01:56:06.401Z,56.9958
2023-04-16T01:57:07.786Z,57.1979
2023-04-16T01:58:09.232Z,57.1094
2023-04-16T01:59:11.821Z,57.2021
2023-04-16T02:00:12.164Z,57.1618
2023-04-16T02:01:13.772Z,57.3208
2023-04-16T02:02:15.113Z,57.3699
2023-04-16T02:03:16.695Z,57.4025
2023-04-16T02:04:17.906Z,57.4252
2023-04-16T02:05:19.396Z,57.3654
2023-04-16T02:06:20.828Z,57.4661
2023-04-16T02:07:22.388Z,57.3763
2023-04-16T02:08:23.731Z,57.3740
2023-04-16T02:09:25.224Z,57.3682
2023-04-16T02:10:26.684Z,57.1630
2023-04-16T02:11:28.102Z,57.2123
2023-04-16T02:12:29.499Z,57.1896
2023-04-16T02:13:30.949Z,57.2282
2023-04-16T02:14:32.530Z,57.1980
2023-04-16T02:15:33.866Z,57.2339
2023-04-16T02:16:35.378Z,57.2757
2023-04-16T02:17:36.735Z,57.4080
2023-04-16T02:18:38.201Z,57.3413
2023-04-16T02:19:39.580Z,57.5310
2023-04-16T02:20:41.097Z,57.5386
2023-04-16T02:21:42.486Z,57.5783
2023-04-16T02:22:43.970Z,57.5949
2023-04-16T02:23:45.348Z,57.5881
2023-04-16T02:24:46.908Z,57.4421
2023-04-16T02:25:48.312Z,57.4426
2023-04-16T02:26:49.797Z,57.2471
2023-04-16T02:27:51.178Z,57.3521
2023-04-16T02:28:52.577Z,57.5420
2023-04-16T02:29:54.017Z,57.4754
2023-04-16T02:30:55.497Z,57.5310
2023-04-16T02:31:57.002Z,57.4487
2023-04-16T02:32:58.460Z,57.4646
2023-04-16T02:33:59.788Z,57.5990
2023-04-16T02:35:01.288Z,57.5031
2023-04-16T02:36:02.689Z,57.3083
2023-04-16T02:37:04.156Z,57.2745
2023-04-16T02:38:05.560Z,57.3646
2023-04-16T02:39:07.170Z,57.2284
2023-04-16T02:40:08.488Z,57.1598
2023-04-16T02:41:09.905Z,57.2150
2023-04-16T02:42:11.413Z,57.2252
2023-04-16T02:43:12.746Z,57.4351
2023-04-16T02:44:14.309Z,57.7051
2023-04-16T02:45:15.708Z,57.8023
2023-04-16T02:46:17.233Z,57.8420
2023-04-16T02:47:18.633Z,57.8689
2023-04-16T02:48:20.018Z,57.9582
2023-04-16T02:49:24.148Z,57.8970
2023-04-16T02:50:22.906Z,57.8723
2023-04-16T02:51:24.712Z,57.8463
2023-04-16T02:52:25.930Z,57.8482
2023-04-16T02:53:27.248Z,57.7576
2023-04-16T02:54:28.768Z,57.4386
2023-04-16T02:55:30.140Z,56.6066
2023-04-16T02:56:32.253Z,55.3865
2023-04-16T02:57:33.066Z,53.8461
2023-04-16T02:58:34.510Z,51.9929
2023-04-16T02:59:35.858Z,50.9108
2023-04-16T03:00:37.355Z,50.7604
2023-04-16T03:01:38.845Z,51.0633
2023-04-16T03:02:40.346Z,51.2831
2023-04-16T03:03:41.676Z,51.6133
2023-04-16T03:04:43.127Z,51.5845
2023-04-16T03:05:44.492Z,51.2243
2023-04-16T03:06:46.029Z,51.2753
2023-04-16T03:07:48.231Z,51.3017
2023-04-16T03:08:48.960Z,51.5515
2023-04-16T03:09:51.088Z,51.8470
2023-04-16T03:10:51.780Z,52.0348
2023-04-16T03:11:53.238Z,52.0623
2023-04-16T03:12:54.656Z,51.9645
2023-04-16T03:13:56.098Z,51.9390
2023-04-16T03:14:57.478Z,51.9770
2023-04-16T03:15:59.016Z,52.1712
2023-04-16T03:17:00.602Z,52.1514
2023-04-16T03:18:02.810Z,52.0857
2023-04-16T03:19:03.257Z,52.0327
2023-04-16T03:20:04.736Z,52.0575
2023-04-16T03:21:06.154Z,52.3129
2023-04-16T03:22:08.315Z,51.9853
2023-04-16T03:23:09.182Z,51.6745
2023-04-16T03:24:10.572Z,51.5952
2023-04-16T03:25:11.914Z,51.6141
2023-04-16T03:26:13.439Z,51.7784
2023-04-16T03:27:14.835Z,51.9384
2023-04-16T03:28:16.320Z,52.1381
2023-04-16T03:29:17.758Z,52.1142
2023-04-16T03:30:19.173Z,52.0074
2023-04-16T03:31:20.708Z,51.8848
2023-04-16T03:32:22.077Z,51.7287
2023-04-16T03:33:23.795Z,51.7639
2023-04-16T03:34:25.063Z,51.8954
2023-04-16T03:35:26.378Z,52.0031
2023-04-16T03:36:27.912Z,52.2524
2023-04-16T03:37:29.232Z,52.3632
2023-04-16T03:38:30.779Z,52.4741
2023-04-16T03:39:32.184Z,52.2373
2023-04-16T03:40:33.599Z,51.9426
2023-04-16T03:41:35.007Z,51.8008
2023-04-16T03:42:36.468Z,51.7668
2023-04-16T03:43:37.966Z,51.8044
2023-04-16T03:44:40.270Z,51.9650
2023-04-16T03:45:41.309Z,52.1293
2023-04-16T03:46:42.250Z,52.2048
2023-04-16T03:47:43.810Z,52.3092
2023-04-16T03:48:45.668Z,52.2348
2023-04-16T03:49:48.274Z,52.1943
2023-04-16T03:50:48.047Z,52.1109
2023-04-16T03:51:49.435Z,52.2312
2023-04-16T03:52:51.732Z,52.2592
2023-04-16T03:53:52.327Z,52.0066
2023-04-16T03:54:54.693Z,51.8146
2023-04-16T03:55:55.323Z,51.9190
2023-04-16T03:56:56.620Z,52.0755
2023-04-16T03:58:00.713Z,52.1612
2023-04-16T03:58:59.510Z,52.3148
2023-04-16T04:00:01.359Z,52.3424
2023-04-16T04:01:02.406Z,52.0529
2023-04-16T04:02:04.804Z,51.8810
2023-04-16T04:03:05.370Z,52.3475
2023-04-16T04:04:06.890Z,52.5407
2023-04-16T04:05:08.186Z,52.8663
2023-04-16T04:06:09.620Z,52.8869
2023-04-16T04:07:11.068Z,52.2472
2023-04-16T04:08:12.519Z,51.5123
2023-04-16T04:09:13.914Z,51.3815
2023-04-16T04:10:15.409Z,51.8541
2023-04-16T04:11:16.897Z,52.2861
2023-04-16T04:12:18.244Z,52.5211
2023-04-16T04:13:19.669Z,52.7158
2023-04-16T04:14:21.146Z,52.1128
2023-04-16T04:15:22.713Z,51.5767
2023-04-16T04:16:24.087Z,51.7968
2023-04-16T04:17:25.472Z,52.1272
2023-04-16T04:18:26.928Z,52.2832
2023-04-16T04:19:31.264Z,52.3103
2023-04-16T04:20:29.871Z,52.0083
2023-04-16T04:21:31.743Z,51.6862
2023-04-16T04:22:33.321Z,51.5703
2023-04-16T04:23:34.150Z,51.8262
2023-04-16T04:24:35.582Z,52.0743
2023-04-16T04:25:37.703Z,52.1720
2023-04-16T04:26:38.499Z,52.3151
2023-04-16T04:27:39.856Z,52.2592
2023-04-16T04:28:41.335Z,52.0705
2023-04-16T04:29:42.793Z,52.0871
2023-04-16T04:30:44.218Z,52.1455
2023-04-16T04:31:45.692Z,52.4250
2023-04-16T04:32:47.324Z,52.5175
2023-04-16T04:33:48.459Z,52.5912
2023-04-16T04:34:50.296Z,52.6428
2023-04-16T04:35:51.379Z,52.4038
2023-04-16T04:36:52.948Z,52.3074
2023-04-16T04:37:54.279Z,52.3287
2023-04-16T04:38:55.760Z,52.4672
2023-04-16T04:39:57.133Z,52.6531
2023-04-16T04:40:58.651Z,52.8374
2023-04-16T04:42:00.055Z,52.8232
2023-04-16T04:43:01.531Z,52.7327
2023-04-16T04:44:03.006Z,52.6638
2023-04-16T04:45:04.778Z,52.6898
2023-04-16T04:46:05.861Z,52.6658
2023-04-16T04:47:07.257Z,52.6596
2023-04-16T04:48:08.719Z,52.6492
2023-04-16T04:49:10.443Z,52.6413
2023-04-16T04:50:11.621Z,52.6356
2023-04-16T04:51:13.028Z,52.6961
2023-04-16T04:52:14.408Z,52.5824
2023-04-16T04:53:15.867Z,52.5450
2023-04-16T04:54:17.383Z,52.4945
2023-04-16T04:55:18.841Z,52.1344
2023-04-16T04:56:20.261Z,51.4187
2023-04-16T04:57:21.707Z,50.5705
2023-04-16T04:58:23.077Z,49.9086
2023-04-16T04:59:24.570Z,49.3671
2023-04-16T05:00:26.776Z,48.9411
2023-04-16T05:01:27.469Z,48.5595
2023-04-16T05:02:28.896Z,48.2612
2023-04-16T05:03:30.217Z,48.0135
2023-04-16T05:04:31.612Z,47.7216
2023-04-16T05:05:33.127Z,47.6929
2023-04-16T05:06:36.266Z,47.5854
2023-04-16T05:07:35.996Z,47.2213
2023-04-16T05:08:37.410Z,47.0296
2023-04-16T05:09:38.854Z,46.9977
2023-04-16T05:10:40.333Z,46.9235
2023-04-16T05:11:42.861Z,46.4960
2023-04-16T05:12:43.356Z,46.7894
2023-04-16T05:13:44.695Z,47.1260
2023-04-16T05:14:46.105Z,46.4698
2023-04-16T05:15:47.546Z,46.1240
2023-04-16T05:16:49.929Z,46.4058
2023-04-16T05:17:50.766Z,46.2058
2023-04-16T05:18:51.816Z,46.3235
2023-04-16T05:19:53.292Z,46.1158
2023-04-16T05:20:54.768Z,45.9324
2023-04-16T05:21:56.243Z,45.9651
2023-04-16T05:22:57.705Z,45.9780
2023-04-16T05:23:59.108Z,45.8658
2023-04-16T05:25:00.476Z,46.0688
2023-04-16T05:26:01.980Z,46.7019
2023-04-16T05:27:03.535Z,46.2043
2023-04-16T05:28:04.833Z,45.5825
2023-04-16T05:29:06.201Z,45.2890
2023-04-16T05:30:07.709Z,45.3076
2023-04-16T05:31:09.234Z,45.5832
2023-04-16T05:32:10.587Z,46.0810
2023-04-16T05:33:12.042Z,45.5852
2023-04-16T05:34:13.361Z,44.8286
2023-04-16T05:35:17.231Z,44.9058
2023-04-16T05:36:16.289Z,45.6487
2023-04-16T05:37:18.258Z,46.0128
2023-04-16T05:38:19.171Z,45.8332
2023-04-16T05:39:20.594Z,45.1928
2023-04-16T05:40:22.020Z,44.4755
2023-04-16T05:41:23.510Z,45.0235
2023-04-16T05:42:24.885Z,45.5453
2023-04-16T05:43:26.290Z,46.0857
2023-04-16T05:44:28.238Z,45.2769
2023-04-16T05:45:29.166Z,44.5708
2023-04-16T05:46:30.830Z,44.4752
2023-04-16T05:47:32.117Z,45.3644
2023-04-16T05:48:33.522Z,45.7010
2023-04-16T05:49:34.971Z,45.5382
2023-04-16T05:50:36.355Z,44.6894
2023-04-16T05:51:37.923Z,44.1599
2023-04-16T05:52:39.204Z,44.3325
2023-04-16T05:53:40.694Z,45.3711
2023-04-16T05:54:42.084Z,46.1404
2023-04-16T05:55:43.447Z,45.6189
2023-04-16T05:56:44.941Z,44.7279
2023-04-16T05:57:46.386Z,44.1992
2023-04-16T05:58:47.829Z,44.7246
2023-04-16T05:59:51.280Z,45.5292
2023-04-16T06:00:50.671Z,46.0880
2023-04-16T06:01:52.202Z,45.0994
2023-04-16T06:02:53.751Z,44.7628
2023-04-16T06:03:55.200Z,44.4446
2023-04-16T06:04:56.479Z,45.1272
2023-04-16T06:05:58.069Z,45.7304
2023-04-16T06:06:59.299Z,45.5293
2023-04-16T06:08:00.810Z,44.7167
2023-04-16T06:09:02.237Z,44.4902
2023-04-16T06:10:03.666Z,44.8029
2023-04-16T06:11:05.106Z,45.5227
2023-04-16T06:12:06.546Z,46.1234
2023-04-16T06:13:07.967Z,45.1707
2023-04-16T06:14:09.405Z,44.7256
2023-04-16T06:15:10.877Z,44.4571
2023-04-16T06:16:12.218Z,45.0506
2023-04-16T06:17:13.732Z,46.0950
2023-04-16T06:18:15.142Z,46.2211
2023-04-16T06:19:16.610Z,45.3112
2023-04-16T06:20:18.013Z,44.5346
2023-04-16T06:21:19.474Z,44.6277
2023-04-16T06:22:20.857Z,45.4666
2023-04-16T06:23:23.370Z,46.2070
2023-04-16T06:24:23.766Z,45.1213
2023-04-16T06:25:25.221Z,44.6167
2023-04-16T06:26:26.641Z,44.2462
2023-04-16T06:27:28.104Z,45.1063
2023-04-16T06:28:29.549Z,45.8621
2023-04-16T06:29:40.455Z,45.5426
2023-04-16T06:30:32.399Z,45.2611
2023-04-16T06:31:33.827Z,44.4334
2023-04-16T06:32:35.195Z,44.7547
2023-04-16T06:33:36.647Z,45.4487
2023-04-16T06:34:38.105Z,46.0261
2023-04-16T06:35:39.559Z,44.5338
2023-04-16T06:36:40.929Z,44.8453
2023-04-16T06:37:42.381Z,44.3880
2023-04-16T06:38:43.813Z,44.8129
2023-04-16T06:39:45.264Z,45.8752
2023-04-16T06:40:46.707Z,45.1123
2023-04-16T06:41:48.134Z,44.7069
2023-04-16T06:42:49.554Z,44.0841
2023-04-16T06:43:50.987Z,44.4061
2023-04-16T06:44:52.450Z,45.6413
2023-04-16T06:45:53.908Z,44.9225
2023-04-16T06:46:55.308Z,44.0763
2023-04-16T06:47:56.810Z,44.2139
2023-04-16T06:48:58.169Z,44.3567
2023-04-16T06:49:59.677Z,45.2899
2023-04-16T06:51:01.098Z,45.4855
2023-04-16T06:52:04.569Z,44.3418
2023-04-16T06:53:03.925Z,44.2654
2023-04-16T06:54:05.391Z,44.1588
2023-04-16T06:55:06.772Z,45.1695
2023-04-16T06:56:08.301Z,45.8386
2023-04-16T06:57:09.692Z,45.0682
2023-04-16T06:58:11.096Z,44.4265
2023-04-16T06:59:12.496Z,44.4407
2023-04-16T07:00:14.023Z,44.9499
2023-04-16T07:01:15.490Z,45.8892
2023-04-16T07:02:17.058Z,45.1007
2023-04-16T07:03:18.365Z,44.5791
2023-04-16T07:04:19.789Z,44.2739
2023-04-16T07:05:21.178Z,44.5667
2023-04-16T07:06:22.643Z,45.4937
2023-04-16T07:07:24.028Z,45.7004
2023-04-16T07:08:25.509Z,44.7718
2023-04-16T07:09:26.943Z,44.7575
2023-04-16T07:10:28.409Z,45.0945
2023-04-16T07:11:29.798Z,45.6214
2023-04-16T07:12:31.227Z,45.9595
2023-04-16T07:13:32.691Z,45.2828
2023-04-16T07:14:34.145Z,44.7756
2023-04-16T07:15:35.816Z,44.7290
2023-04-16T07:16:37.091Z,45.3760
2023-04-16T07:17:38.464Z,46.1802
2023-04-16T07:18:39.897Z,45.4859
2023-04-16T07:19:42.274Z,45.1012
2023-04-16T07:20:42.858Z,44.7920
2023-04-16T07:21:44.210Z,44.8702
2023-04-16T07:22:45.649Z,45.8169
2023-04-16T07:23:47.024Z,44.6735
2023-04-16T07:24:48.538Z,44.4400
2023-04-16T07:25:49.975Z,44.6633
2023-04-16T07:26:51.474Z,44.2365
2023-04-16T07:27:52.803Z,44.8495
2023-04-16T07:28:54.268Z,45.4361
2023-04-16T07:29:55.672Z,44.9496
2023-04-16T07:30:57.190Z,44.4999
2023-04-16T07:31:58.654Z,44.2924
2023-04-16T07:33:00.111Z,44.9849
2023-04-16T07:34:01.436Z,46.0852
2023-04-16T07:35:02.892Z,45.7836
2023-04-16T07:36:04.372Z,44.7627
2023-04-16T07:37:05.801Z,44.5890
2023-04-16T07:38:07.162Z,44.7669
2023-04-16T07:39:08.937Z,45.0955
2023-04-16T07:40:10.029Z,46.0279
2023-04-16T07:41:11.538Z,45.0183
2023-04-16T07:42:12.976Z,44.9292
2023-04-16T07:43:14.401Z,44.7663
2023-04-16T07:44:15.815Z,45.6776
2023-04-16T07:45:17.252Z,46.2497
2023-04-16T07:46:18.752Z,45.0527
2023-04-16T07:47:20.209Z,44.5776
2023-04-16T07:48:21.549Z,44.6205
2023-04-16T07:49:23.015Z,45.0624
2023-04-16T07:50:24.416Z,45.5428
2023-04-16T07:51:25.870Z,45.7865
2023-04-16T07:52:27.353Z,45.2292
2023-04-16T07:53:28.700Z,44.7732
2023-04-16T07:54:30.245Z,44.6011
2023-04-16T07:55:31.626Z,45.5199
2023-04-16T07:56:33.190Z,46.3675
2023-04-16T07:57:34.490Z,45.5160
2023-04-16T07:58:35.908Z,45.1504
2023-04-16T07:59:37.386Z,45.4612
2023-04-16T08:00:38.811Z,45.1708
2023-04-16T08:01:40.280Z,46.2479
2023-04-16T08:02:41.927Z,45.4368
2023-04-16T08:03:43.323Z,45.1288
2023-04-16T08:04:44.974Z,44.6816
2023-04-16T08:05:45.991Z,44.9813
2023-04-16T08:06:47.534Z,46.2660
2023-04-16T08:07:48.893Z,45.6086
2023-04-16T08:08:50.374Z,45.4231
2023-04-16T08:09:51.747Z,44.6381
2023-04-16T08:10:53.201Z,44.9451
2023-04-16T08:11:54.664Z,45.5963
2023-04-16T08:12:56.110Z,45.8967
2023-04-16T08:13:57.495Z,44.8568
2023-04-16T08:14:58.945Z,44.5131
2023-04-16T08:16:00.394Z,44.4762
2023-04-16T08:17:01.867Z,45.1063
2023-04-16T08:18:03.338Z,45.9975
2023-04-16T08:19:04.755Z,44.8890
2023-04-16T08:20:06.228Z,44.7581
2023-04-16T08:21:07.628Z,45.0317
2023-04-16T08:22:09.070Z,45.3294
2023-04-16T08:23:10.512Z,45.5090
2023-04-16T08:24:12.905Z,45.6490
2023-04-16T08:25:13.325Z,45.2442
2023-04-16T08:26:14.816Z,45.1881
2023-04-16T08:27:19.746Z,45.0016
2023-04-16T08:28:17.710Z,45.2958
2023-04-16T08:29:19.059Z,46.3687
2023-04-16T08:30:20.558Z,45.0898
2023-04-16T08:31:22.031Z,44.7189
2023-04-16T08:32:23.508Z,44.6071
2023-04-16T08:33:24.943Z,44.8106
2023-04-16T08:34:26.296Z,45.7444
2023-04-16T08:35:27.769Z,45.0967
2023-04-16T08:36:29.176Z,44.9955
2023-04-16T08:37:30.614Z,44.6576
2023-04-16T08:38:32.121Z,45.0413
2023-04-16T08:39:33.460Z,45.6849
2023-04-16T08:40:34.976Z,45.6028
2023-04-16T08:41:36.360Z,45.0105
2023-04-16T08:42:37.914Z,44.6111
2023-04-16T08:43:39.316Z,44.8538
2023-04-16T08:44:40.728Z,44.8510
2023-04-16T08:45:42.111Z,45.9275
2023-04-16T08:46:43.809Z,45.5140
2023-04-16T08:47:45.091Z,45.0495
2023-04-16T08:48:46.540Z,44.5492
2023-04-16T08:49:47.847Z,44.8585
2023-04-16T08:50:49.393Z,45.8110
2023-04-16T08:51:50.782Z,44.9304
2023-04-16T08:52:52.272Z,45.2489
2023-04-16T08:53:53.748Z,45.7822
2023-04-16T08:54:56.697Z,47.0828
2023-04-16T08:55:56.544Z,48.0737
2023-04-16T08:56:58.816Z,48.1092
2023-04-16T08:57:59.534Z,47.7791
2023-04-16T08:59:00.902Z,48.0500
2023-04-16T09:00:02.321Z,48.6940
2023-04-16T09:01:03.700Z,49.1452
2023-04-16T09:02:05.300Z,49.9104
2023-04-16T09:03:06.930Z,49.2341
2023-04-16T09:04:08.226Z,49.2284
2023-04-16T09:05:09.507Z,50.2245
2023-04-16T09:06:10.979Z,50.3880
2023-04-16T09:07:12.362Z,49.9815
2023-04-16T09:08:13.929Z,50.4113
2023-04-16T09:09:15.281Z,49.7754
2023-04-16T09:10:16.737Z,49.6387
2023-04-16T09:11:18.168Z,50.3694
2023-04-16T09:12:19.720Z,50.5288
2023-04-16T09:13:21.220Z,50.7932
2023-04-16T09:14:22.658Z,50.4168
2023-04-16T09:15:24.045Z,49.9585
2023-04-16T09:16:25.539Z,50.4538
2023-04-16T09:17:26.957Z,50.5683
2023-04-16T09:18:28.377Z,50.7983
2023-04-16T09:19:29.894Z,51.2866
2023-04-16T09:20:31.327Z,50.7275
2023-04-16T09:21:32.732Z,50.4869
2023-04-16T09:22:34.127Z,50.7901
2023-04-16T09:23:35.637Z,51.1586
2023-04-16T09:24:37.100Z,50.7473
2023-04-16T09:25:38.599Z,51.2816
2023-04-16T09:26:39.892Z,51.0379
2023-04-16T09:27:41.371Z,51.1104
2023-04-16T09:28:42.853Z,51.8341
2023-04-16T09:29:44.301Z,51.8022
2023-04-16T09:30:45.713Z,51.3360
2023-04-16T09:31:47.205Z,53.1553
2023-04-16T09:32:48.584Z,51.3724
2023-04-16T09:33:50.138Z,51.3739
2023-04-16T09:34:51.471Z,52.4530
2023-04-16T09:35:52.982Z,51.5679
2023-04-16T09:36:54.418Z,51.2474
2023-04-16T09:37:55.821Z,51.9217
2023-04-16T09:38:57.808Z,51.1429
2023-04-16T09:39:58.768Z,51.5231
2023-04-16T09:41:00.129Z,52.1751
2023-04-16T09:42:01.668Z,51.4316
2023-04-16T09:43:03.079Z,51.2328
2023-04-16T09:44:04.514Z,51.8672
2023-04-16T09:45:06.508Z,51.3879
2023-04-16T09:46:08.416Z,51.7427
2023-04-16T09:47:08.750Z,52.2638
2023-04-16T09:48:10.266Z,51.3863
2023-04-16T09:49:11.962Z,52.1361
2023-04-16T09:50:13.315Z,51.6575
2023-04-16T09:51:14.703Z,51.4200
2023-04-16T09:52:16.075Z,52.2979
2023-04-16T09:53:18.452Z,52.1455
2023-04-16T09:54:19.015Z,51.2455
2023-04-16T09:55:20.454Z,51.6811
2023-04-16T09:56:21.894Z,49.8539
2023-04-16T09:57:23.336Z,49.1316
2023-04-16T09:58:24.720Z,48.7767
2023-04-16T09:59:26.204Z,48.3784
2023-04-16T10:00:27.623Z,48.1916
2023-04-16T10:01:29.187Z,47.5807
2023-04-16T10:02:30.501Z,47.1291
2023-04-16T10:03:32.159Z,46.5572
2023-04-16T10:04:33.408Z,46.6790
2023-04-16T10:05:34.939Z,46.5092
2023-04-16T10:06:36.274Z,46.8218
2023-04-16T10:07:37.696Z,46.4125
2023-04-16T10:08:39.106Z,45.6799
2023-04-16T10:09:40.597Z,45.3822
2023-04-16T10:10:42.039Z,45.5914
2023-04-16T10:11:43.526Z,46.1302
2023-04-16T10:12:44.882Z,45.7246
2023-04-16T10:13:46.373Z,45.1770
2023-04-16T10:14:49.606Z,45.2442
2023-04-16T10:15:49.329Z,44.9638
2023-04-16T10:16:50.684Z,44.9908
2023-04-16T10:17:53.023Z,44.7874
2023-04-16T10:18:53.555Z,44.1309
2023-04-16T10:19:55.017Z,44.1700
2023-04-16T10:20:56.927Z,43.6915
2023-04-16T10:21:57.956Z,43.8405
2023-04-16T10:22:59.353Z,44.8515
2023-04-16T10:24:00.817Z,44.0904
2023-04-16T10:25:02.199Z,43.9300
2023-04-16T10:26:03.755Z,43.9920
2023-04-16T10:27:05.136Z,43.4240
2023-04-16T10:28:06.634Z,43.7062
2023-04-16T10:29:08.093Z,44.5372
2023-04-16T10:30:09.495Z,44.4689
2023-04-16T10:31:11.031Z,45.0671
2023-04-16T10:32:12.351Z,45.4057
2023-04-16T10:33:13.856Z,46.3351
2023-04-16T10:34:15.192Z,47.2405
2023-04-16T10:35:16.714Z,46.8691
2023-04-16T10:36:18.137Z,47.2151
2023-04-16T10:37:19.647Z,47.2906
2023-04-16T10:38:21.058Z,47.4353
2023-04-16T10:39:22.432Z,47.6285
2023-04-16T10:40:23.840Z,47.9396
2023-04-16T10:41:25.352Z,47.6187
2023-04-16T10:42:26.799Z,47.7158
2023-04-16T10:43:28.455Z,48.2674
2023-04-16T10:44:29.727Z,48.4616
2023-04-16T10:45:31.078Z,48.7654
2023-04-16T10:46:32.589Z,48.4981
2023-04-16T10:47:34.010Z,47.6262
2023-04-16T10:48:46.564Z,47.8887
2023-04-16T10:49:36.909Z,49.3361
2023-04-16T10:50:38.267Z,49.1146
2023-04-16T10:51:39.739Z,49.3258
2023-04-16T10:52:41.254Z,48.6042
2023-04-16T10:53:42.913Z,48.5334
2023-04-16T10:54:44.156Z,48.8459
2023-04-16T10:55:45.555Z,49.6009
2023-04-16T10:56:47.011Z,49.7470
2023-04-16T10:57:48.389Z,50.3896
2023-04-16T10:58:49.912Z,49.3619
2023-04-16T10:59:51.375Z,49.5475
2023-04-16T11:00:52.736Z,49.9095
2023-04-16T11:01:54.377Z,50.2871
2023-04-16T11:02:55.709Z,49.6237
2023-04-16T11:03:57.319Z,50.1822
2023-04-16T11:04:58.646Z,49.5972
2023-04-16T11:05:59.902Z,49.5844
2023-04-16T11:07:01.410Z,50.5927
2023-04-16T11:08:02.777Z,50.1758
2023-04-16T11:09:04.287Z,50.1658
2023-04-16T11:10:05.764Z,50.7000
2023-04-16T11:11:07.314Z,49.3883
2023-04-16T11:12:08.538Z,49.8330
2023-04-16T11:13:10.046Z,50.2399
2023-04-16T11:14:12.417Z,50.5818
2023-04-16T11:15:13.917Z,50.4093
2023-04-16T11:16:14.444Z,51.0635
2023-04-16T11:17:15.795Z,50.1271
2023-04-16T11:18:17.242Z,49.8929
2023-04-16T11:19:18.691Z,50.8127
2023-04-16T11:20:20.929Z,50.2589
2023-04-16T11:21:21.609Z,49.9647
2023-04-16T11:22:23.169Z,50.4315
2023-04-16T11:23:24.431Z,49.6020
2023-04-16T11:24:26.352Z,49.1642
2023-04-16T11:25:27.286Z,50.0565
2023-04-16T11:26:28.889Z,50.2197
2023-04-16T11:27:30.240Z,50.2668
2023-04-16T11:28:31.724Z,50.0209
2023-04-16T11:29:33.106Z,49.3260
2023-04-16T11:30:34.644Z,49.7038
2023-04-16T11:31:36.155Z,50.6230
2023-04-16T11:32:37.529Z,50.6873
2023-04-16T11:33:38.922Z,49.9234
2023-04-16T11:34:40.390Z,49.9965
2023-04-16T11:35:41.810Z,49.3896
2023-04-16T11:36:43.262Z,49.3250
2023-04-16T11:37:44.702Z,50.2066
2023-04-16T11:38:46.141Z,49.9316
2023-04-16T11:39:47.536Z,50.8059
2023-04-16T11:40:48.987Z,49.7846
2023-04-16T11:41:50.471Z,49.4476
2023-04-16T11:42:52.423Z,49.4935
2023-04-16T11:43:53.356Z,50.9977
2023-04-16T11:44:54.788Z,50.4149
2023-04-16T11:45:56.211Z,51.1435
2023-04-16T11:46:57.771Z,50.1128
2023-04-16T11:47:59.182Z,49.7720
2023-04-16T11:49:00.487Z,50.4032
2023-04-16T11:50:02.059Z,50.9352
2023-04-16T11:51:03.438Z,50.2772
2023-04-16T11:52:04.903Z,50.6467
2023-04-16T11:53:06.400Z,49.8113
2023-04-16T11:54:09.142Z,49.8795
2023-04-16T11:55:09.160Z,50.5795
2023-04-16T11:56:10.616Z,50.6530
2023-04-16T11:57:12.057Z,49.9435
2023-04-16T11:58:13.564Z,50.7475
2023-04-16T11:59:15.248Z,49.9882
2023-04-16T12:00:16.370Z,50.0367
2023-04-16T12:01:17.783Z,51.1093
2023-04-16T12:02:19.324Z,51.4855
2023-04-16T12:03:20.929Z,50.9171
2023-04-16T12:04:22.269Z,51.7958
2023-04-16T12:05:23.569Z,49.9657
2023-04-16T12:06:24.967Z,50.3336
2023-04-16T12:07:27.364Z,50.7948
2023-04-16T12:08:35.992Z,51.2954
2023-04-16T12:09:29.366Z,50.9443
2023-04-16T12:10:30.808Z,52.5363
2023-04-16T12:11:32.248Z,50.2598
2023-04-16T12:12:33.689Z,50.3712
2023-04-16T12:13:35.116Z,50.9069
2023-04-16T12:14:36.613Z,49.8041
2023-04-16T12:15:37.972Z,48.8922
2023-04-16T12:16:39.497Z,47.7280
2023-04-16T12:17:40.893Z,46.9128
2023-04-16T12:18:42.411Z,46.1893
2023-04-16T12:19:43.757Z,46.3518
2023-04-16T12:20:45.189Z,46.3750
2023-04-16T12:21:46.598Z,46.1310
2023-04-16T12:22:48.115Z,45.1561